Logo AVAMET
Benvolgut visitant, si us plau, ingressa Recuperar contrasenya

Inforatge Dénia Madrigueres

Dades diàries. Acumulats / Últims 30 dies disponibles

Data Temperatura (°C) Humitat rel. (%) Pressió rel. (hPa) Vent (km/h) Precipitació
Mínima Mitjana Màxima Amplitud
tèrmica
Mínima Mitjana Màxima Mínima Mitjana Màxima Predom. Mitjana Ràfega
màxima
Total
(mm)
Índex-n
Mínima Mitjana Màxima Mínima Mitjana Màxima n
0 a 1
P0 max
mm 5'
Dades mensuals acumulades fins l'últim dia disponible
11/2019 6,6 13,3 21,9 16,5 15,3 20,1 27,7 21,1 27 52 89 1.000 1.011 1.020   8,8 54,7 7,4
Dades anuals acumulades fins l'últim dia disponible
2019 1,9 15,4 27,1 19,7 12,1 24,1 39,8 37,9 16 66 98 994 1.017 1.035   5,7 70,9 652,8
Últims 30 dies disponibles
19-11-2019 6,6     11,5     15,7 9,1 40 57 74 1.015 1.016 1.018 WNW 3,9 20,9 0,0
18-11-2019 9,9     12,8     15,3 5,4 53 69 89 1.007 1.011 1.016 WNW 5,8 29,0 2,0 0,42 0,40
17-11-2019 8,9     13,7     17,8 8,9 37 49 84 1.010 1.012 1.015 WNW 7,4 33,8 1,2
16-11-2019 9,2     11,7     16,1 6,9 44 54 64 1.007 1.011 1.015 WNW 5,3 25,7 0,0
15-11-2019 10,0     12,8     15,8 5,8 39 51 62 1.001 1.004 1.007 WNW 7,4 38,6 0,0
14-11-2019 11,8     15,0     17,4 5,6 41 62 81 1.000 1.003 1.010 WNW 8,0 43,5 0,0
13-11-2019 12,2     15,9     20,9 8,7 44 69 87 1.006 1.008 1.012 WNW 5,6 40,2 4,2 0,21 0,40
12-11-2019 11,9     15,1     19,8 7,9 33 45 61 1.009 1.012 1.013 WNW 7,7 32,2 0,0
11-11-2019 10,4     14,2     17,6 7,2 39 48 63 1.011 1.013 1.014 WNW 8,7 37,0 0,0
10-11-2019 12,1     14,6     17,1 5,0 37 50 65 1.010 1.012 1.014 WNW 14,0 45,1 0,0
09-11-2019 13,2     15,9     19,6 6,4 32 42 64 1.013 1.017 1.020 WNW 11,4 40,2 0,0
08-11-2019 11,4     14,7     17,3 5,9 36 44 60 1.009 1.013 1.017 WNW 16,7 45,1 0,0
07-11-2019 13,8     17,8     22,3 8,5 27 48 60 1.008 1.010 1.014 WNW 5,3 29,0 0,0
06-11-2019 15,1     17,5     22,1 7,0 33 46 54 1.012 1.013 1.014 WNW 10,8 32,2 0,0
05-11-2019 16,3     18,8     21,0 4,7 38 47 59 1.006 1.009 1.012 WNW 13,2 54,7 0,0
04-11-2019 19,3     22,2     26,3 7,0 41 50 59 1.007 1.009 1.012 WNW 9,0 41,8 0,0
03-11-2019 19,7     22,3     25,4 5,7 43 48 59 1.003 1.005 1.011 WNW 11,9 51,5 0,0
02-11-2019 21,9     24,1     27,3 5,4 40 52 61 1.005 1.009 1.013 WNW 9,3 38,6 0,0
01-11-2019 19,5     23,8     27,7 8,2 49 59 71 1.014 1.017 1.020 WNW 6,6 37,0 0,0
31-10-2019 20,4     23,1     26,8 6,4 48 61 85 1.019 1.020 1.021 O 5,0 29,0 0,0
30-10-2019 15,1     20,5     24,3 9,2 56 74 94 1.019 1.020 1.022 NNE 1,1 11,3 0,0
29-10-2019 14,6     19,3     23,8 9,2 61 79 95 1.015 1.017 1.020 E 1,9 22,5 0,0
28-10-2019 13,8     18,1     23,5 9,7 67 85 96 1.016 1.018 1.021 NNW 0,8 12,9 0,2
27-10-2019 14,1     18,0     21,4 7,3 71 85 94 1.020 1.021 1.023 E 2,3 20,9 0,0
26-10-2019 12,7     17,6     22,0 9,3 59 79 93 1.020 1.021 1.023 E 1,6 14,5 0,0
25-10-2019 14,7     19,1     24,9 10,2 44 61 84 1.021 1.022 1.023 SW 2,1 19,3 0,0
24-10-2019 12,6     17,0     21,9 9,3 44 60 75 1.011 1.016 1.022 WNW 5,1 29,0 0,0
23-10-2019 11,6     15,2     20,4 8,8 45 70 89 1.006 1.008 1.012 SW 2,1 30,6 1,4
22-10-2019 13,8     15,6     16,9 3,1 70 86 97 1.006 1.010 1.018 WNW 7,7 40,2 73,0 0,48 4,60
21-10-2019 13,9     15,6     17,6 3,7 54 75 91 1.015 1.017 1.019 WNW 1,3 27,4 5,4 0,42 0,40
Últims 13 mesos disponibles
10/2019 11,6 16,7 21,4 20,9 16,9 25,1 34,1 22,5 45 70 87 1.008 1.016 1.022 SSO 3,6 41,8 81,6
09/2019 14,5 20,6 24,6 24,5 24,0 28,3 35,2 20,7 50 75 92 1.010 1.017 1.023 SSO 5,7 70,9 181,4
08/2019 19,6 23,0 27,1 27,3 27,1 32,0 39,8 20,2 50 69 83 1.010 1.015 1.020 S 5,8 48,3 39,0
07/2019 21,5 23,2 26,9 27,4 27,7 31,7 38,2 16,7 44 67 84 1.006 1.014 1.021 S 6,2 53,7 1,6
06/2019 13,9 18,5 22,9 23,2 20,9 27,8 37,7 23,8 36 65 86 1.009 1.015 1.022 SSE 6,6 55,6 0,0
05/2019 10,6 15,0 20,6 19,4 18,9 24,1 31,5 20,9 49 67 85 1.005 1.015 1.024 S 5,8 55,6 10,0
04/2019 10,1 12,3 16,7 16,0 14,9 20,2 28,8 18,7 41 68 96 1.000 1.013 1.025 SSO 7,1 56,3 282,0
03/2019 6,9 10,1 16,1 15,1 14,3 19,7 28,0 21,1 28 63 90 1.011 1.023 1.030 S 4,9 53,7 46,0
02/2019 4,9 8,0 12,1 12,8 12,8 17,5 23,7 18,8 38 65 85 996 1.025 1.033 S 4,5 64,8 0,2
01/2019 1,9 7,5 14,1 12,0 12,1 16,5 21,8 19,9 41 61 85 1.003 1.019 1.030 SSO 4,8 63,0 3,6
12/2018 5,8 9,1 12,4 13,7 13,4 18,6 22,8 17,0 53 72 89 1.009 1.025 1.031 SSO 2,5 51,9 31,6
11/2018 7,0 12,2 16,2 15,7 15,9 19,2 24,1 17,1 47 70 94 1.000 1.015 1.023 OSO 4,5 63,0 124,6
10/2018 9,4 15,7 20,7 19,6 15,0 23,7 28,8 19,4 41 71 89 1.000 1.014 1.025 S 4,6 55,6 109,4
Tots els anys disponibles
2018 2,9 15,2 27,2 19,1 8,3 23,2 37,9 35,0 34 67 94 993 1.016 1.034 S 5,5 66,7 612,4
2017 3,3 15,8 27,2 20,0 12,4 24,3 37,1 33,8 30 69 94 998 1.018 1.035 S 3,2 61,1 453,0
Temperatura (°C)
Humitat relativa (%)
Velocitat del vent i ràfega màxima (km/h)
Direcció del vent (°)
Pressió (hPa)
Precipitació (mm)
Nota sobre les dades: s'avisa a l'usuari de la provisionalitat i no oficialitat d'aquestes dades
Logo AVAMET blanc
Web allotjada a Sollutia
Llicència de Creative CommonsLa web d'AVAMET i els seus continguts estan subjectes a una llicència de
Reconeixement - No Comercial - Compartir igual
Últimes estacions: Faura (Inforatge), Benifairó de les Valls (Inforatge), Xàbia - Les Valls (Soci), Xàbia - Alt de la Granadella (Soci), Villena - Sierra de Salinas (Soci), Sueca - Centre (Inforatge) - - -